sensor_id;sensor_type;location;lat;lon;timestamp;noise_LAeq;noise_LA_min;noise_LA_max;noise_LA01;noise_LA95
81666;Laerm;71083;51.796;10.952;2024-03-08T00:00:55;51.52;30.09;67.18;;
81666;Laerm;71083;51.796;10.952;2024-03-08T00:03:20;51.93;29.03;67.40;;
81666;Laerm;71083;51.796;10.952;2024-03-08T00:05:46;53.20;29.15;70.85;;
81666;Laerm;71083;51.796;10.952;2024-03-08T00:08:11;57.00;30.28;72.05;;
81666;Laerm;71083;51.796;10.952;2024-03-08T00:10:36;54.48;30.35;72.91;;
81666;Laerm;71083;51.796;10.952;2024-03-08T00:13:04;56.12;31.58;68.22;;
81666;Laerm;71083;51.796;10.952;2024-03-08T00:15:29;41.64;29.06;57.04;;
81666;Laerm;71083;51.796;10.952;2024-03-08T00:17:54;56.42;31.07;73.55;;
81666;Laerm;71083;51.796;10.952;2024-03-08T00:20:20;31.00;28.56;36.53;;
81666;Laerm;71083;51.796;10.952;2024-03-08T00:22:45;32.26;28.64;39.81;;
81666;Laerm;71083;51.796;10.952;2024-03-08T00:25:11;39.04;31.01;50.08;;
81666;Laerm;71083;51.796;10.952;2024-03-08T00:27:39;52.98;29.94;69.15;;
81666;Laerm;71083;51.796;10.952;2024-03-08T00:30:06;53.22;31.06;69.74;;
81666;Laerm;71083;51.796;10.952;2024-03-08T00:32:31;39.68;29.84;56.09;;
81666;Laerm;71083;51.796;10.952;2024-03-08T00:34:57;51.39;30.34;66.72;;
81666;Laerm;71083;51.796;10.952;2024-03-08T00:37:22;32.38;29.97;35.88;;
81666;Laerm;71083;51.796;10.952;2024-03-08T00:39:48;32.34;29.25;38.71;;
81666;Laerm;71083;51.796;10.952;2024-03-08T00:42:15;36.15;29.24;44.23;;
81666;Laerm;71083;51.796;10.952;2024-03-08T00:44:41;35.84;30.09;44.93;;
81666;Laerm;71083;51.796;10.952;2024-03-08T00:47:06;32.78;29.07;39.69;;
81666;Laerm;71083;51.796;10.952;2024-03-08T00:49:31;55.02;28.56;72.39;;
81666;Laerm;71083;51.796;10.952;2024-03-08T00:51:57;57.25;29.15;74.89;;
81666;Laerm;71083;51.796;10.952;2024-03-08T00:54:22;61.73;29.97;78.13;;
81666;Laerm;71083;51.796;10.952;2024-03-08T00:56:48;42.01;30.83;53.69;;
81666;Laerm;71083;51.796;10.952;2024-03-08T00:59:13;39.93;31.85;46.32;;
81666;Laerm;71083;51.796;10.952;2024-03-08T01:01:39;34.90;30.44;42.15;;
81666;Laerm;71083;51.796;10.952;2024-03-08T01:04:04;51.81;30.28;68.02;;
81666;Laerm;71083;51.796;10.952;2024-03-08T01:06:30;33.73;30.12;40.13;;
81666;Laerm;71083;51.796;10.952;2024-03-08T01:08:55;37.13;29.71;45.97;;
81666;Laerm;71083;51.796;10.952;2024-03-08T01:11:20;31.95;29.99;36.65;;
81666;Laerm;71083;51.796;10.952;2024-03-08T01:13:46;55.79;30.25;74.11;;
81666;Laerm;71083;51.796;10.952;2024-03-08T01:16:12;53.32;29.28;69.30;;
81666;Laerm;71083;51.796;10.952;2024-03-08T01:18:37;51.74;28.82;67.74;;
81666;Laerm;71083;51.796;10.952;2024-03-08T01:21:03;39.57;29.33;49.59;;
81666;Laerm;71083;51.796;10.952;2024-03-08T01:23:28;35.39;29.21;44.13;;
81666;Laerm;71083;51.796;10.952;2024-03-08T01:25:54;36.72;28.94;45.79;;
81666;Laerm;71083;51.796;10.952;2024-03-08T01:28:24;37.01;31.02;43.31;;
81666;Laerm;71083;51.796;10.952;2024-03-08T01:30:49;56.37;30.19;74.82;;
81666;Laerm;71083;51.796;10.952;2024-03-08T01:33:21;45.64;29.85;62.94;;
81666;Laerm;71083;51.796;10.952;2024-03-08T01:35:47;54.68;32.89;67.91;;
81666;Laerm;71083;51.796;10.952;2024-03-08T01:38:13;32.60;28.98;40.53;;
81666;Laerm;71083;51.796;10.952;2024-03-08T01:40:38;35.25;29.67;45.01;;
81666;Laerm;71083;51.796;10.952;2024-03-08T01:43:18;58.73;31.02;75.58;;
81666;Laerm;71083;51.796;10.952;2024-03-08T01:45:44;35.81;30.11;44.69;;
81666;Laerm;71083;51.796;10.952;2024-03-08T01:48:09;53.83;29.59;69.90;;
81666;Laerm;71083;51.796;10.952;2024-03-08T01:50:35;31.08;29.11;34.22;;
81666;Laerm;71083;51.796;10.952;2024-03-08T01:53:01;33.69;29.32;44.08;;
81666;Laerm;71083;51.796;10.952;2024-03-08T01:55:27;32.57;28.77;41.63;;
81666;Laerm;71083;51.796;10.952;2024-03-08T01:57:52;55.51;29.40;72.53;;
81666;Laerm;71083;51.796;10.952;2024-03-08T02:00:18;55.51;30.13;72.31;;
81666;Laerm;71083;51.796;10.952;2024-03-08T02:02:44;34.55;30.12;42.68;;
81666;Laerm;71083;51.796;10.952;2024-03-08T02:05:11;60.36;29.44;74.81;;
81666;Laerm;71083;51.796;10.952;2024-03-08T02:07:40;43.04;29.39;60.18;;
81666;Laerm;71083;51.796;10.952;2024-03-08T02:10:09;51.13;38.55;69.20;;
81666;Laerm;71083;51.796;10.952;2024-03-08T02:12:34;45.08;29.80;62.03;;
81666;Laerm;71083;51.796;10.952;2024-03-08T02:15:00;52.58;29.10;68.82;;
81666;Laerm;71083;51.796;10.952;2024-03-08T02:17:25;32.53;29.82;39.18;;
81666;Laerm;71083;51.796;10.952;2024-03-08T02:19:50;33.23;30.05;42.45;;
81666;Laerm;71083;51.796;10.952;2024-03-08T02:22:16;35.43;31.04;43.13;;
81666;Laerm;71083;51.796;10.952;2024-03-08T02:24:41;31.91;29.33;36.97;;
81666;Laerm;71083;51.796;10.952;2024-03-08T02:27:06;34.02;29.63;41.54;;
81666;Laerm;71083;51.796;10.952;2024-03-08T02:29:32;35.65;31.90;43.03;;
81666;Laerm;71083;51.796;10.952;2024-03-08T02:31:59;38.20;29.74;48.46;;
81666;Laerm;71083;51.796;10.952;2024-03-08T02:34:24;38.32;29.65;48.92;;
81666;Laerm;71083;51.796;10.952;2024-03-08T02:36:49;52.63;29.69;70.23;;
81666;Laerm;71083;51.796;10.952;2024-03-08T02:39:14;34.31;29.24;41.65;;
81666;Laerm;71083;51.796;10.952;2024-03-08T02:41:40;54.81;31.44;71.79;;
81666;Laerm;71083;51.796;10.952;2024-03-08T02:44:07;35.53;31.91;44.29;;
81666;Laerm;71083;51.796;10.952;2024-03-08T02:46:32;51.79;31.58;67.98;;
81666;Laerm;71083;51.796;10.952;2024-03-08T02:48:57;57.12;31.77;71.57;;
81666;Laerm;71083;51.796;10.952;2024-03-08T02:51:23;57.46;30.64;72.52;;
81666;Laerm;71083;51.796;10.952;2024-03-08T02:53:48;55.47;31.85;71.81;;
81666;Laerm;71083;51.796;10.952;2024-03-08T02:56:16;56.37;29.88;71.28;;
81666;Laerm;71083;51.796;10.952;2024-03-08T02:58:42;64.13;31.19;80.19;;
81666;Laerm;71083;51.796;10.952;2024-03-08T03:01:07;57.33;32.35;70.75;;
81666;Laerm;71083;51.796;10.952;2024-03-08T03:03:33;60.85;31.46;75.22;;
81666;Laerm;71083;51.796;10.952;2024-03-08T03:05:58;55.81;31.44;71.91;;
81666;Laerm;71083;51.796;10.952;2024-03-08T03:08:23;62.79;30.97;79.80;;
81666;Laerm;71083;51.796;10.952;2024-03-08T03:10:49;59.61;33.38;72.10;;
81666;Laerm;71083;51.796;10.952;2024-03-08T03:13:14;50.14;30.64;66.07;;
81666;Laerm;71083;51.796;10.952;2024-03-08T03:15:40;58.21;33.66;72.86;;
81666;Laerm;71083;51.796;10.952;2024-03-08T03:18:07;55.11;33.24;69.43;;
81666;Laerm;71083;51.796;10.952;2024-03-08T03:20:33;62.77;32.05;79.85;;
81666;Laerm;71083;51.796;10.952;2024-03-08T03:23:02;42.22;32.96;52.25;;
81666;Laerm;71083;51.796;10.952;2024-03-08T03:25:28;64.16;33.92;78.26;;
81666;Laerm;71083;51.796;10.952;2024-03-08T03:28:00;59.60;35.34;73.83;;
81666;Laerm;71083;51.796;10.952;2024-03-08T03:30:25;60.29;34.25;74.83;;
81666;Laerm;71083;51.796;10.952;2024-03-08T03:32:53;64.93;34.67;81.68;;
81666;Laerm;71083;51.796;10.952;2024-03-08T03:35:19;62.30;34.65;73.82;;
81666;Laerm;71083;51.796;10.952;2024-03-08T03:37:45;61.20;35.73;74.15;;
81666;Laerm;71083;51.796;10.952;2024-03-08T03:40:26;61.90;32.38;78.53;;
81666;Laerm;71083;51.796;10.952;2024-03-08T03:42:51;65.64;32.63;79.70;;
81666;Laerm;71083;51.796;10.952;2024-03-08T03:45:17;60.92;33.85;77.85;;
81666;Laerm;71083;51.796;10.952;2024-03-08T03:47:45;62.45;34.97;78.37;;
81666;Laerm;71083;51.796;10.952;2024-03-08T03:50:10;66.23;33.38;82.71;;
81666;Laerm;71083;51.796;10.952;2024-03-08T03:52:35;61.20;34.82;74.17;;
81666;Laerm;71083;51.796;10.952;2024-03-08T03:55:01;56.37;34.29;74.69;;
81666;Laerm;71083;51.796;10.952;2024-03-08T03:57:26;60.32;36.98;73.95;;
81666;Laerm;71083;51.796;10.952;2024-03-08T03:59:51;59.74;33.67;74.89;;
81666;Laerm;71083;51.796;10.952;2024-03-08T04:02:17;57.64;37.01;68.37;;
81666;Laerm;71083;51.796;10.952;2024-03-08T04:04:42;62.31;35.58;73.31;;
81666;Laerm;71083;51.796;10.952;2024-03-08T04:07:09;59.85;39.69;70.11;;
81666;Laerm;71083;51.796;10.952;2024-03-08T04:09:35;61.68;34.48;73.35;;
81666;Laerm;71083;51.796;10.952;2024-03-08T04:12:00;58.27;35.69;73.93;;
81666;Laerm;71083;51.796;10.952;2024-03-08T04:14:26;64.44;40.32;80.09;;
81666;Laerm;71083;51.796;10.952;2024-03-08T04:16:51;61.92;38.87;71.86;;
81666;Laerm;71083;51.796;10.952;2024-03-08T04:19:17;64.38;37.84;76.41;;
81666;Laerm;71083;51.796;10.952;2024-03-08T04:21:44;66.23;38.76;78.54;;
81666;Laerm;71083;51.796;10.952;2024-03-08T04:24:09;66.59;38.73;81.11;;
81666;Laerm;71083;51.796;10.952;2024-03-08T04:26:35;65.90;39.42;76.62;;
81666;Laerm;71083;51.796;10.952;2024-03-08T04:29:00;65.68;49.88;74.87;;
81666;Laerm;71083;51.796;10.952;2024-03-08T04:31:26;65.70;44.97;80.76;;
81666;Laerm;71083;51.796;10.952;2024-03-08T04:33:51;67.56;47.12;78.31;;
81666;Laerm;71083;51.796;10.952;2024-03-08T04:36:17;65.07;46.12;73.68;;
81666;Laerm;71083;51.796;10.952;2024-03-08T04:38:42;64.80;39.26;79.77;;
81666;Laerm;71083;51.796;10.952;2024-03-08T04:41:07;66.48;42.10;78.54;;
81666;Laerm;71083;51.796;10.952;2024-03-08T04:43:33;66.91;42.74;78.35;;
81666;Laerm;71083;51.796;10.952;2024-03-08T04:45:59;69.62;42.77;83.86;;
81666;Laerm;71083;51.796;10.952;2024-03-08T04:48:24;64.48;45.69;73.89;;
81666;Laerm;71083;51.796;10.952;2024-03-08T04:50:51;65.28;43.20;75.24;;
81666;Laerm;71083;51.796;10.952;2024-03-08T04:53:18;61.73;40.54;74.25;;
81666;Laerm;71083;51.796;10.952;2024-03-08T04:55:43;65.60;43.56;78.46;;
81666;Laerm;71083;51.796;10.952;2024-03-08T04:58:09;65.60;42.05;76.99;;
81666;Laerm;71083;51.796;10.952;2024-03-08T05:00:34;65.18;41.76;76.40;;
81666;Laerm;71083;51.796;10.952;2024-03-08T05:03:00;66.05;42.73;83.09;;
81666;Laerm;71083;51.796;10.952;2024-03-08T05:05:25;64.13;40.45;74.51;;
81666;Laerm;71083;51.796;10.952;2024-03-08T05:07:53;65.60;41.90;78.65;;
81666;Laerm;71083;51.796;10.952;2024-03-08T05:10:18;66.83;39.18;77.83;;
81666;Laerm;71083;51.796;10.952;2024-03-08T05:12:44;64.36;47.35;76.32;;
81666;Laerm;71083;51.796;10.952;2024-03-08T05:15:09;65.02;50.38;74.81;;
81666;Laerm;71083;51.796;10.952;2024-03-08T05:17:34;66.03;41.41;82.04;;
81666;Laerm;71083;51.796;10.952;2024-03-08T05:20:00;67.30;49.05;76.08;;
81666;Laerm;71083;51.796;10.952;2024-03-08T05:22:25;65.66;47.68;73.79;;
81666;Laerm;71083;51.796;10.952;2024-03-08T05:24:51;65.44;45.73;75.63;;
81666;Laerm;71083;51.796;10.952;2024-03-08T05:27:16;66.74;46.13;74.79;;
81666;Laerm;71083;51.796;10.952;2024-03-08T05:29:41;66.56;44.53;75.21;;
81666;Laerm;71083;51.796;10.952;2024-03-08T05:32:07;66.32;52.27;73.21;;
81666;Laerm;71083;51.796;10.952;2024-03-08T05:34:32;68.95;47.42;80.74;;
81666;Laerm;71083;51.796;10.952;2024-03-08T05:36:57;84.92;50.66;102.70;;
81666;Laerm;71083;51.796;10.952;2024-03-08T05:39:23;76.46;44.05;98.82;;
81666;Laerm;71083;51.796;10.952;2024-03-08T05:41:49;63.60;46.41;73.59;;
81666;Laerm;71083;51.796;10.952;2024-03-08T05:44:15;69.75;53.25;82.51;;
81666;Laerm;71083;51.796;10.952;2024-03-08T05:46:43;66.06;49.64;74.99;;
81666;Laerm;71083;51.796;10.952;2024-03-08T05:49:08;82.52;47.98;104.65;;
81666;Laerm;71083;51.796;10.952;2024-03-08T05:51:35;68.28;47.70;78.06;;
81666;Laerm;71083;51.796;10.952;2024-03-08T05:54:01;70.04;52.58;87.31;;
81666;Laerm;71083;51.796;10.952;2024-03-08T05:56:28;68.11;51.83;77.83;;
81666;Laerm;71083;51.796;10.952;2024-03-08T05:58:54;67.17;50.31;76.03;;
81666;Laerm;71083;51.796;10.952;2024-03-08T06:01:19;68.03;50.69;80.29;;
81666;Laerm;71083;51.796;10.952;2024-03-08T06:03:44;68.16;52.12;77.65;;
81666;Laerm;71083;51.796;10.952;2024-03-08T06:06:13;69.14;53.11;79.62;;
81666;Laerm;71083;51.796;10.952;2024-03-08T06:08:39;66.39;50.34;73.88;;
81666;Laerm;71083;51.796;10.952;2024-03-08T06:11:04;67.32;51.72;78.94;;
81666;Laerm;71083;51.796;10.952;2024-03-08T06:13:31;69.05;49.27;80.47;;
81666;Laerm;71083;51.796;10.952;2024-03-08T06:15:56;67.68;52.96;76.57;;
81666;Laerm;71083;51.796;10.952;2024-03-08T06:18:21;68.68;53.27;75.18;;
81666;Laerm;71083;51.796;10.952;2024-03-08T06:20:47;68.73;48.07;79.89;;
81666;Laerm;71083;51.796;10.952;2024-03-08T06:23:12;68.51;53.13;75.28;;
81666;Laerm;71083;51.796;10.952;2024-03-08T06:25:37;69.11;51.81;77.77;;
81666;Laerm;71083;51.796;10.952;2024-03-08T06:28:03;68.00;51.04;78.39;;
81666;Laerm;71083;51.796;10.952;2024-03-08T06:30:28;69.64;51.66;82.17;;
81666;Laerm;71083;51.796;10.952;2024-03-08T06:32:53;69.14;48.33;77.76;;
81666;Laerm;71083;51.796;10.952;2024-03-08T06:35:19;67.40;50.89;74.88;;
81666;Laerm;71083;51.796;10.952;2024-03-08T06:37:45;68.73;47.15;81.98;;
81666;Laerm;71083;51.796;10.952;2024-03-08T06:40:11;69.23;51.66;78.89;;
81666;Laerm;71083;51.796;10.952;2024-03-08T06:42:39;69.39;52.25;77.05;;
81666;Laerm;71083;51.796;10.952;2024-03-08T06:45:04;67.46;51.02;75.30;;
81666;Laerm;71083;51.796;10.952;2024-03-08T06:47:30;69.71;53.58;77.54;;
81666;Laerm;71083;51.796;10.952;2024-03-08T06:49:55;68.82;53.42;83.35;;
81666;Laerm;71083;51.796;10.952;2024-03-08T06:52:21;67.25;46.99;79.62;;
81666;Laerm;71083;51.796;10.952;2024-03-08T06:54:47;67.57;49.39;76.55;;
81666;Laerm;71083;51.796;10.952;2024-03-08T06:57:12;68.31;55.81;77.65;;
81666;Laerm;71083;51.796;10.952;2024-03-08T06:59:38;69.12;52.50;79.32;;
81666;Laerm;71083;51.796;10.952;2024-03-08T07:02:04;66.59;48.25;77.22;;
81666;Laerm;71083;51.796;10.952;2024-03-08T07:04:29;66.47;46.81;80.57;;
81666;Laerm;71083;51.796;10.952;2024-03-08T07:06:55;66.03;47.16;74.23;;
81666;Laerm;71083;51.796;10.952;2024-03-08T07:09:20;68.33;48.55;78.80;;
81666;Laerm;71083;51.796;10.952;2024-03-08T07:11:46;65.40;48.99;73.58;;
81666;Laerm;71083;51.796;10.952;2024-03-08T07:14:12;67.51;42.93;80.18;;
81666;Laerm;71083;51.796;10.952;2024-03-08T07:16:37;69.37;53.48;81.63;;
81666;Laerm;71083;51.796;10.952;2024-03-08T07:19:03;66.50;47.21;77.54;;
81666;Laerm;71083;51.796;10.952;2024-03-08T07:21:30;67.32;49.86;73.79;;
81666;Laerm;71083;51.796;10.952;2024-03-08T07:23:55;65.94;50.40;75.10;;
81666;Laerm;71083;51.796;10.952;2024-03-08T07:26:26;69.05;52.81;79.79;;
81666;Laerm;71083;51.796;10.952;2024-03-08T07:28:52;66.63;49.07;77.64;;
81666;Laerm;71083;51.796;10.952;2024-03-08T07:31:20;69.14;50.97;78.13;;
81666;Laerm;71083;51.796;10.952;2024-03-08T07:33:51;68.56;47.42;83.85;;
81666;Laerm;71083;51.796;10.952;2024-03-08T07:36:18;76.77;48.42;97.47;;
81666;Laerm;71083;51.796;10.952;2024-03-08T07:38:43;69.62;51.26;83.88;;
81666;Laerm;71083;51.796;10.952;2024-03-08T07:41:11;68.94;49.92;81.86;;
81666;Laerm;71083;51.796;10.952;2024-03-08T07:43:36;68.96;44.66;79.15;;
81666;Laerm;71083;51.796;10.952;2024-03-08T07:46:01;66.36;46.01;81.65;;
81666;Laerm;71083;51.796;10.952;2024-03-08T07:48:27;68.65;51.70;76.62;;
81666;Laerm;71083;51.796;10.952;2024-03-08T07:50:52;67.92;52.09;78.34;;
81666;Laerm;71083;51.796;10.952;2024-03-08T07:53:17;68.41;51.39;81.53;;
81666;Laerm;71083;51.796;10.952;2024-03-08T07:55:42;67.74;47.95;77.64;;
81666;Laerm;71083;51.796;10.952;2024-03-08T07:58:09;68.87;49.28;82.46;;
81666;Laerm;71083;51.796;10.952;2024-03-08T08:00:36;67.90;48.29;76.47;;
81666;Laerm;71083;51.796;10.952;2024-03-08T08:03:01;67.20;49.71;77.25;;
81666;Laerm;71083;51.796;10.952;2024-03-08T08:05:27;68.27;47.95;76.59;;
81666;Laerm;71083;51.796;10.952;2024-03-08T08:07:52;67.73;52.58;76.82;;
81666;Laerm;71083;51.796;10.952;2024-03-08T08:10:18;65.84;52.46;75.63;;
81666;Laerm;71083;51.796;10.952;2024-03-08T08:12:46;67.86;54.66;75.34;;
81666;Laerm;71083;51.796;10.952;2024-03-08T08:15:12;67.70;48.82;77.20;;
81666;Laerm;71083;51.796;10.952;2024-03-08T08:17:37;68.52;47.24;83.13;;
81666;Laerm;71083;51.796;10.952;2024-03-08T08:20:03;67.33;45.60;76.11;;
81666;Laerm;71083;51.796;10.952;2024-03-08T08:22:30;66.78;50.48;74.59;;
81666;Laerm;71083;51.796;10.952;2024-03-08T08:24:56;69.71;50.88;82.31;;
81666;Laerm;71083;51.796;10.952;2024-03-08T08:27:21;66.22;46.03;75.89;;
81666;Laerm;71083;51.796;10.952;2024-03-08T08:29:46;69.91;54.09;82.25;;
81666;Laerm;71083;51.796;10.952;2024-03-08T08:32:12;67.41;47.98;77.82;;
81666;Laerm;71083;51.796;10.952;2024-03-08T08:34:37;67.09;46.83;79.25;;
81666;Laerm;71083;51.796;10.952;2024-03-08T08:37:02;66.16;43.91;74.83;;
81666;Laerm;71083;51.796;10.952;2024-03-08T08:39:27;65.82;46.86;74.25;;
81666;Laerm;71083;51.796;10.952;2024-03-08T08:41:53;66.95;50.34;75.21;;
81666;Laerm;71083;51.796;10.952;2024-03-08T08:44:18;68.70;53.15;78.21;;
81666;Laerm;71083;51.796;10.952;2024-03-08T08:46:43;67.40;50.55;79.52;;
81666;Laerm;71083;51.796;10.952;2024-03-08T08:49:08;65.78;48.71;73.89;;
81666;Laerm;71083;51.796;10.952;2024-03-08T08:51:39;67.67;46.10;76.51;;
81666;Laerm;71083;51.796;10.952;2024-03-08T08:54:04;67.99;58.60;76.33;;
81666;Laerm;71083;51.796;10.952;2024-03-08T08:56:31;68.24;49.26;76.53;;
81666;Laerm;71083;51.796;10.952;2024-03-08T08:58:56;68.44;49.76;78.11;;
81666;Laerm;71083;51.796;10.952;2024-03-08T09:01:22;68.09;49.60;75.18;;
81666;Laerm;71083;51.796;10.952;2024-03-08T09:03:48;67.46;55.26;73.58;;
81666;Laerm;71083;51.796;10.952;2024-03-08T09:06:15;67.26;48.58;74.77;;
81666;Laerm;71083;51.796;10.952;2024-03-08T09:08:40;66.17;47.54;75.12;;
81666;Laerm;71083;51.796;10.952;2024-03-08T09:11:06;69.28;55.48;76.23;;
81666;Laerm;71083;51.796;10.952;2024-03-08T09:13:31;66.66;54.50;73.25;;
81666;Laerm;71083;51.796;10.952;2024-03-08T09:15:58;69.05;53.73;78.72;;
81666;Laerm;71083;51.796;10.952;2024-03-08T09:18:23;69.99;51.41;82.32;;
81666;Laerm;71083;51.796;10.952;2024-03-08T09:20:49;68.25;54.32;83.06;;
81666;Laerm;71083;51.796;10.952;2024-03-08T09:23:14;69.95;58.27;77.67;;
81666;Laerm;71083;51.796;10.952;2024-03-08T09:25:41;68.67;55.11;76.47;;
81666;Laerm;71083;51.796;10.952;2024-03-08T09:28:07;67.69;49.57;77.53;;
81666;Laerm;71083;51.796;10.952;2024-03-08T09:30:32;68.56;49.45;76.52;;
81666;Laerm;71083;51.796;10.952;2024-03-08T09:32:59;68.88;52.50;79.22;;
81666;Laerm;71083;51.796;10.952;2024-03-08T09:35:24;67.35;48.12;76.32;;
81666;Laerm;71083;51.796;10.952;2024-03-08T09:37:50;68.77;50.63;78.57;;
81666;Laerm;71083;51.796;10.952;2024-03-08T09:40:16;68.35;49.83;79.55;;
81666;Laerm;71083;51.796;10.952;2024-03-08T09:42:44;69.64;54.29;83.27;;
81666;Laerm;71083;51.796;10.952;2024-03-08T09:45:10;68.68;56.95;75.54;;
81666;Laerm;71083;51.796;10.952;2024-03-08T09:47:36;68.00;45.63;78.51;;
81666;Laerm;71083;51.796;10.952;2024-03-08T09:50:04;68.31;47.18;80.38;;
81666;Laerm;71083;51.796;10.952;2024-03-08T09:52:30;68.37;52.10;74.95;;
81666;Laerm;71083;51.796;10.952;2024-03-08T09:54:57;68.63;53.12;78.91;;
81666;Laerm;71083;51.796;10.952;2024-03-08T09:57:23;68.29;46.79;75.52;;
81666;Laerm;71083;51.796;10.952;2024-03-08T09:59:49;67.95;55.20;80.26;;
81666;Laerm;71083;51.796;10.952;2024-03-08T10:02:15;68.09;49.67;75.29;;
81666;Laerm;71083;51.796;10.952;2024-03-08T10:04:41;69.25;50.66;79.60;;
81666;Laerm;71083;51.796;10.952;2024-03-08T10:07:13;68.31;57.53;78.08;;
81666;Laerm;71083;51.796;10.952;2024-03-08T10:09:38;68.33;49.92;76.58;;
81666;Laerm;71083;51.796;10.952;2024-03-08T10:12:04;67.63;51.75;78.02;;
81666;Laerm;71083;51.796;10.952;2024-03-08T10:14:30;68.85;52.97;78.15;;
81666;Laerm;71083;51.796;10.952;2024-03-08T10:16:57;67.74;53.31;74.65;;
81666;Laerm;71083;51.796;10.952;2024-03-08T10:19:25;66.95;51.55;78.81;;
81666;Laerm;71083;51.796;10.952;2024-03-08T10:21:50;67.62;50.43;82.06;;
81666;Laerm;71083;51.796;10.952;2024-03-08T10:24:18;67.12;45.38;74.89;;
81666;Laerm;71083;51.796;10.952;2024-03-08T10:26:44;68.03;54.28;76.57;;
81666;Laerm;71083;51.796;10.952;2024-03-08T10:29:09;90.04;52.42;109.45;;
81666;Laerm;71083;51.796;10.952;2024-03-08T10:31:34;68.09;54.10;75.97;;
81666;Laerm;71083;51.796;10.952;2024-03-08T10:34:00;68.75;53.68;79.35;;
81666;Laerm;71083;51.796;10.952;2024-03-08T10:36:26;68.41;47.24;76.69;;
81666;Laerm;71083;51.796;10.952;2024-03-08T10:38:53;67.35;53.44;75.26;;
81666;Laerm;71083;51.796;10.952;2024-03-08T10:41:18;67.04;55.95;74.45;;
81666;Laerm;71083;51.796;10.952;2024-03-08T10:43:52;68.07;52.40;74.82;;
81666;Laerm;71083;51.796;10.952;2024-03-08T10:49:04;67.24;48.95;73.61;;
81666;Laerm;71083;51.796;10.952;2024-03-08T10:51:32;68.01;47.57;74.75;;
81666;Laerm;71083;51.796;10.952;2024-03-08T10:53:58;67.25;47.88;77.73;;
81666;Laerm;71083;51.796;10.952;2024-03-08T10:56:24;68.23;45.31;75.96;;
81666;Laerm;71083;51.796;10.952;2024-03-08T10:58:52;68.72;57.15;75.34;;
81666;Laerm;71083;51.796;10.952;2024-03-08T11:01:18;67.36;54.47;75.22;;
81666;Laerm;71083;51.796;10.952;2024-03-08T11:03:43;68.71;49.92;79.82;;
81666;Laerm;71083;51.796;10.952;2024-03-08T11:06:13;69.13;52.77;78.54;;
81666;Laerm;71083;51.796;10.952;2024-03-08T11:08:40;68.49;52.55;77.95;;
81666;Laerm;71083;51.796;10.952;2024-03-08T11:11:05;68.15;52.26;74.76;;
81666;Laerm;71083;51.796;10.952;2024-03-08T11:13:40;68.43;53.04;80.75;;
81666;Laerm;71083;51.796;10.952;2024-03-08T11:16:12;80.66;49.50;101.04;;
81666;Laerm;71083;51.796;10.952;2024-03-08T11:18:37;68.03;47.64;74.40;;
81666;Laerm;71083;51.796;10.952;2024-03-08T11:21:03;67.45;54.36;78.16;;
81666;Laerm;71083;51.796;10.952;2024-03-08T11:23:32;69.60;47.39;80.22;;
81666;Laerm;71083;51.796;10.952;2024-03-08T11:25:58;68.33;53.75;75.95;;
81666;Laerm;71083;51.796;10.952;2024-03-08T11:28:24;67.65;50.52;74.82;;
81666;Laerm;71083;51.796;10.952;2024-03-08T11:33:26;70.02;54.01;82.23;;
81666;Laerm;71083;51.796;10.952;2024-03-08T11:35:52;67.75;48.73;75.84;;
81666;Laerm;71083;51.796;10.952;2024-03-08T11:38:17;68.37;52.32;79.78;;
81666;Laerm;71083;51.796;10.952;2024-03-08T11:40:45;69.01;48.19;78.45;;
81666;Laerm;71083;51.796;10.952;2024-03-08T11:43:11;68.34;54.98;76.03;;
81666;Laerm;71083;51.796;10.952;2024-03-08T11:45:36;69.39;46.67;76.00;;
81666;Laerm;71083;51.796;10.952;2024-03-08T11:48:02;68.96;51.58;84.79;;
81666;Laerm;71083;51.796;10.952;2024-03-08T11:50:28;68.53;52.63;78.61;;
81666;Laerm;71083;51.796;10.952;2024-03-08T11:52:59;69.32;52.88;75.35;;
81666;Laerm;71083;51.796;10.952;2024-03-08T11:55:25;67.31;48.64;74.70;;
81666;Laerm;71083;51.796;10.952;2024-03-08T11:57:50;69.38;54.93;76.32;;
81666;Laerm;71083;51.796;10.952;2024-03-08T12:00:16;68.99;53.60;79.09;;
81666;Laerm;71083;51.796;10.952;2024-03-08T12:03:02;68.06;51.05;74.31;;
81666;Laerm;71083;51.796;10.952;2024-03-08T12:05:27;68.09;48.42;74.81;;
81666;Laerm;71083;51.796;10.952;2024-03-08T12:07:56;68.45;57.01;76.52;;
81666;Laerm;71083;51.796;10.952;2024-03-08T12:10:22;68.38;52.98;77.74;;
81666;Laerm;71083;51.796;10.952;2024-03-08T12:12:48;68.66;52.88;76.56;;
81666;Laerm;71083;51.796;10.952;2024-03-08T12:15:17;68.68;57.25;76.12;;
81666;Laerm;71083;51.796;10.952;2024-03-08T12:17:43;67.42;51.31;77.96;;
81666;Laerm;71083;51.796;10.952;2024-03-08T12:20:12;68.99;49.10;75.36;;
81666;Laerm;71083;51.796;10.952;2024-03-08T12:22:40;68.33;52.04;80.69;;
81666;Laerm;71083;51.796;10.952;2024-03-08T12:25:06;68.04;51.37;76.84;;
81666;Laerm;71083;51.796;10.952;2024-03-08T12:27:35;67.76;50.95;75.97;;
81666;Laerm;71083;51.796;10.952;2024-03-08T12:30:14;68.16;55.08;76.35;;
81666;Laerm;71083;51.796;10.952;2024-03-08T12:32:40;68.47;48.15;77.54;;
81666;Laerm;71083;51.796;10.952;2024-03-08T12:35:11;68.57;47.93;78.20;;
81666;Laerm;71083;51.796;10.952;2024-03-08T12:37:36;67.71;51.76;75.27;;
81666;Laerm;71083;51.796;10.952;2024-03-08T12:40:04;67.88;55.91;74.80;;
81666;Laerm;71083;51.796;10.952;2024-03-08T12:42:32;70.57;57.51;82.62;;
81666;Laerm;71083;51.796;10.952;2024-03-08T12:44:57;69.05;52.64;75.54;;
81666;Laerm;71083;51.796;10.952;2024-03-08T12:47:24;67.09;52.92;75.14;;
81666;Laerm;71083;51.796;10.952;2024-03-08T12:49:50;69.22;54.08;78.51;;
81666;Laerm;71083;51.796;10.952;2024-03-08T12:52:15;66.21;50.21;74.85;;
81666;Laerm;71083;51.796;10.952;2024-03-08T12:54:43;69.61;53.47;77.47;;
81666;Laerm;71083;51.796;10.952;2024-03-08T12:57:08;67.38;51.28;77.47;;
81666;Laerm;71083;51.796;10.952;2024-03-08T12:59:34;68.51;50.66;74.51;;
81666;Laerm;71083;51.796;10.952;2024-03-08T13:01:59;68.11;56.54;76.19;;
81666;Laerm;71083;51.796;10.952;2024-03-08T13:04:25;66.87;52.82;73.95;;
81666;Laerm;71083;51.796;10.952;2024-03-08T13:06:50;69.81;50.85;78.70;;
81666;Laerm;71083;51.796;10.952;2024-03-08T13:09:16;70.28;53.40;80.14;;
81666;Laerm;71083;51.796;10.952;2024-03-08T13:11:44;68.30;54.19;75.85;;
81666;Laerm;71083;51.796;10.952;2024-03-08T13:14:10;70.67;57.48;82.75;;
81666;Laerm;71083;51.796;10.952;2024-03-08T13:16:35;68.82;54.35;76.33;;
81666;Laerm;71083;51.796;10.952;2024-03-08T13:19:00;67.01;51.04;73.33;;
81666;Laerm;71083;51.796;10.952;2024-03-08T13:21:26;68.32;48.85;80.21;;
81666;Laerm;71083;51.796;10.952;2024-03-08T13:23:51;69.93;49.23;78.20;;
81666;Laerm;71083;51.796;10.952;2024-03-08T13:26:18;67.26;49.77;74.47;;
81666;Laerm;71083;51.796;10.952;2024-03-08T13:28:46;68.75;51.69;78.32;;
81666;Laerm;71083;51.796;10.952;2024-03-08T13:31:13;69.03;55.37;81.38;;